Time;durP1;ratioP1;P1;durP2;ratioP2;P2;SDS_P1;SDS_P2;PMS_P1;PMS_P2;Temp;Humidity;BMP_temperature;BMP_pressure;BME280_temperature;BME280_humidity;BME280_pressure;Samples;Min_cycle;Max_cycle;Signal;HPM_P1;HPM_P2
2022/06/02 00:01:15;;;;;;;19.10;8.77;;;;;;;7.60;100.00;101201.19;4926006;29;20032;-90
2022/06/02 00:03:48;;;;;;;14.50;8.95;;;;;;;7.64;100.00;101207.09;4934250;29;20070;-89
2022/06/02 00:06:37;;;;;;;13.75;9.05;;;;;;;7.59;100.00;101204.81;4933769;29;20038;-89
2022/06/02 00:09:15;;;;;;;16.42;9.63;;;;;;;7.58;100.00;101202.28;4926227;29;20032;-90
2022/06/02 00:12:01;;;;;;;20.85;10.32;;;;;;;7.56;100.00;101202.44;4933882;29;20028;-89
2022/06/02 00:14:32;;;;;;;18.95;10.60;;;;;;;7.55;100.00;101195.44;4941726;29;20046;-90
2022/06/02 00:17:07;;;;;;;14.93;9.35;;;;;;;7.50;100.00;101200.31;4925825;29;20477;-89
2022/06/02 00:19:37;;;;;;;12.75;8.48;;;;;;;7.46;100.00;101204.19;4930474;29;20118;-89
2022/06/02 00:22:13;;;;;;;18.17;9.75;;;;;;;7.46;100.00;101206.84;4933956;29;20023;-89
2022/06/02 00:24:51;;;;;;;;;;;;;;;7.44;100.00;101200.81;4931355;29;20044;-89
2022/06/02 00:27:25;;;;;;;13.73;8.57;;;;;;;7.48;100.00;101207.56;4925146;29;19915;-89
2022/06/02 00:30:05;;;;;;;12.82;8.82;;;;;;;7.42;100.00;101201.91;4917726;29;20027;-90
2022/06/02 00:32:45;;;;;;;13.65;8.18;;;;;;;7.41;100.00;101206.41;4933953;29;20027;-90
2022/06/02 00:35:36;;;;;;;14.45;8.50;;;;;;;7.37;100.00;101210.28;4933831;29;20105;-89
2022/06/02 00:38:22;;;;;;;14.18;7.97;;;;;;;7.30;100.00;101206.47;4934680;29;20604;-90
2022/06/02 00:40:50;;;;;;;;;;;;;;;7.31;100.00;101211.66;4926037;29;20046;-89
2022/06/02 00:43:31;;;;;;;16.88;8.25;;;;;;;7.30;100.00;101209.13;4933733;28;20627;-89
2022/06/02 00:46:14;;;;;;;16.42;9.18;;;;;;;7.26;100.00;101213.88;4942003;29;20122;-89
2022/06/02 00:48:53;;;;;;;12.07;8.60;;;;;;;7.19;100.00;101210.88;4930775;29;20050;-89
2022/06/02 00:51:33;;;;;;;14.88;8.32;;;;;;;7.21;100.00;101209.88;4925389;29;20043;-90
2022/06/02 00:57:30;;;;;;;14.00;8.85;;;;;;;7.18;100.00;101227.75;4933469;29;20483;-89
2022/06/02 01:00:04;;;;;;;18.50;9.40;;;;;;;7.20;100.00;101222.34;4925436;29;20127;-90
2022/06/02 01:02:37;;;;;;;14.50;8.30;;;;;;;7.16;100.00;101229.72;4924617;29;20039;-90
2022/06/02 01:05:04;;;;;;;18.58;8.20;;;;;;;7.16;100.00;101223.56;4927647;29;20079;-90
2022/06/02 01:08:02;;;;;;;13.05;8.98;;;;;;;7.34;100.00;101231.78;4925701;29;20024;-90
2022/06/02 01:10:40;;;;;;;17.70;9.10;;;;;;;7.34;100.00;101231.78;4924881;29;20504;-89
2022/06/02 01:13:15;;;;;;;12.80;7.80;;;;;;;7.30;100.00;101238.34;4925148;29;20488;-89
2022/06/02 01:16:00;;;;;;;14.98;8.10;;;;;;;7.33;100.00;101240.75;4925016;29;20040;-89
2022/06/02 01:18:33;;;;;;;14.93;8.40;;;;;;;7.30;100.00;101233.03;4940790;29;20107;-89
2022/06/02 01:21:33;;;;;;;12.02;8.20;;;;;;;7.32;100.00;101245.19;4924588;29;20031;-89
2022/06/02 01:24:19;;;;;;;12.85;8.15;;;;;;;7.37;100.00;101237.72;4940667;29;20047;-89
2022/06/02 01:27:00;;;;;;;;;;;;;;;7.40;100.00;101232.13;4921870;29;20047;-89
2022/06/02 01:29:32;;;;;;;10.68;7.47;;;;;;;7.38;100.00;101228.75;4944719;28;19922;-88
2022/06/02 01:32:14;;;;;;;16.10;7.82;;;;;;;7.29;100.00;101228.69;4924051;28;20071;-89
2022/06/02 01:35:06;;;;;;;12.75;8.75;;;;;;;7.23;100.00;101234.50;4917400;29;20035;-89
2022/06/02 01:37:54;;;;;;;17.23;8.02;;;;;;;7.19;100.00;101237.44;4921294;29;20489;-90
2022/06/02 01:40:39;;;;;;;17.33;8.27;;;;;;;7.21;100.00;101236.44;4915825;29;20043;-89
2022/06/02 01:43:20;;;;;;;15.25;7.97;;;;;;;7.23;100.00;101238.00;4924468;29;20040;-89
2022/06/02 01:46:04;;;;;;;13.98;8.63;;;;;;;7.15;100.00;101241.31;4925606;29;20040;-89
2022/06/02 01:49:17;;;;;;;14.13;8.30;;;;;;;7.10;100.00;101240.84;4928191;29;20035;-90
2022/06/02 01:52:10;;;;;;;15.77;8.55;;;;;;;6.98;100.00;101228.59;4926749;29;20050;-89
2022/06/02 01:55:03;;;;;;;14.73;8.25;;;;;;;7.03;100.00;101245.00;4940983;29;20039;-90
2022/06/02 01:57:38;;;;;;;14.15;8.50;;;;;;;7.01;100.00;101240.78;4924790;29;20094;-89
2022/06/02 02:00:08;;;;;;;12.93;7.65;;;;;;;6.90;100.00;101241.66;4932843;29;20032;-89
2022/06/02 02:03:13;;;;;;;14.63;7.97;;;;;;;6.93;100.00;101244.91;4940884;29;20048;-90
2022/06/02 02:06:09;;;;;;;13.93;8.65;;;;;;;6.91;100.00;101240.72;4924620;29;20039;-89
2022/06/02 02:08:56;;;;;;;22.48;12.23;;;;;;;6.94;100.00;101245.75;4924533;29;20035;-90
2022/06/02 02:11:40;;;;;;;20.27;11.35;;;;;;;7.05;100.00;101250.19;4924218;29;20032;-90
2022/06/02 02:14:21;;;;;;;17.08;10.27;;;;;;;7.02;100.00;101245.94;4933615;29;20110;-90
2022/06/02 02:17:27;;;;;;;17.50;10.15;;;;;;;6.93;100.00;101246.69;4916358;29;20527;-90
2022/06/02 02:19:59;;;;;;;21.10;9.68;;;;;;;6.98;100.00;101248.03;4939754;29;20036;-89
2022/06/02 02:22:50;;;;;;;15.70;8.93;;;;;;;6.86;100.00;101246.38;4923041;29;20028;-90
2022/06/02 02:25:42;;;;;;;16.73;9.52;;;;;;;6.72;100.00;101244.03;4921560;29;20131;-90
2022/06/02 02:28:45;;;;;;;22.27;9.52;;;;;;;6.74;100.00;101250.03;4941140;29;20031;-90
2022/06/02 02:31:44;;;;;;;17.65;9.35;;;;;;;6.71;100.00;101245.81;4919268;29;20063;-89
2022/06/02 02:34:25;;;;;;;14.65;8.88;;;;;;;6.62;100.00;101235.94;4915085;29;20075;-90
2022/06/02 02:36:57;;;;;;;15.88;9.55;;;;;;;6.66;100.00;101248.00;4923958;29;20054;-89
2022/06/02 02:39:32;;;;;;;18.98;10.15;;;;;;;6.59;100.00;101236.22;4922930;29;20040;-90
2022/06/02 02:42:25;;;;;;;14.65;10.10;;;;;;;6.62;100.00;101241.25;4940098;29;20102;-89
2022/06/02 02:45:14;;;;;;;15.40;9.23;;;;;;;6.58;100.00;101250.47;4923854;29;20036;-90
2022/06/02 02:47:52;;;;;;;22.10;10.85;;;;;;;6.60;100.00;101240.53;4930540;28;20056;-89
2022/06/02 02:50:29;;;;;;;17.33;9.45;;;;;;;6.64;100.00;101241.97;4923888;29;20043;-89
2022/06/02 02:53:02;;;;;;;16.75;9.93;;;;;;;6.73;100.00;101251.84;4926566;29;20042;-90
2022/06/02 02:55:43;;;;;;;16.65;8.63;;;;;;;6.65;100.00;101241.03;4931918;29;20245;-89
2022/06/02 02:58:37;;;;;;;14.48;9.38;;;;;;;6.59;100.00;101238.88;4917261;29;20036;-90
2022/06/02 03:01:33;;;;;;;19.17;8.95;;;;;;;6.62;100.00;101248.38;4916212;29;20059;-89
2022/06/02 03:04:11;;;;;;;17.25;10.25;;;;;;;6.72;100.00;101252.00;4923653;29;20039;-90
2022/06/02 03:06:42;;;;;;;20.40;9.73;;;;;;;6.64;100.00;101249.94;4919373;29;20039;-90
2022/06/02 03:09:26;;;;;;;14.75;9.70;;;;;;;6.65;100.00;101262.25;4926922;29;20126;-90
2022/06/02 03:11:57;;;;;;;15.98;9.57;;;;;;;6.65;100.00;101261.38;4926417;29;20043;-89
2022/06/02 03:14:25;;;;;;;17.30;9.73;;;;;;;6.69;100.00;101258.38;4926987;29;20036;-89
2022/06/02 03:16:58;;;;;;;29.42;11.07;;;;;;;6.66;100.00;101249.81;4927341;29;20024;-89
2022/06/02 03:19:37;;;;;;;16.20;9.73;;;;;;;6.75;100.00;101254.38;4919010;29;20038;-90
2022/06/02 03:22:20;;;;;;;12.63;8.48;;;;;;;6.79;100.00;101258.47;4918955;29;20027;-90
2022/06/02 03:25:02;;;;;;;17.48;9.50;;;;;;;6.88;100.00;101256.88;4944179;29;20095;-89
2022/06/02 03:27:53;;;;;;;15.55;8.93;;;;;;;6.98;100.00;101263.97;4926826;29;20051;-89
2022/06/02 03:30:39;;;;;;;18.70;10.30;;;;;;;6.98;100.00;101265.78;4918546;29;20024;-89
2022/06/02 03:33:48;;;;;;;17.75;9.68;;;;;;;7.10;100.00;101264.75;4927722;29;20040;-90
2022/06/02 03:36:43;;;;;;;21.48;9.90;;;;;;;7.18;100.00;101261.44;4915344;29;20043;-89
2022/06/02 03:39:41;;;;;;;17.27;9.80;;;;;;;7.28;100.00;101262.38;4909266;29;20090;-89
2022/06/02 03:42:46;;;;;;;14.18;8.57;;;;;;;7.46;100.00;101257.31;4912716;29;20169;-88
2022/06/02 03:45:20;;;;;;;15.32;9.60;;;;;;;7.64;100.00;101262.06;4922828;29;20070;-88
2022/06/02 03:48:12;;;;;;;12.57;8.15;;;;;;;7.72;100.00;101256.91;4928240;29;20043;-89
2022/06/02 03:51:17;;;;;;;13.93;7.78;;;;;;;7.79;100.00;101250.94;4931780;29;20043;-89
2022/06/02 03:54:01;;;;;;;11.93;7.50;;;;;;;7.85;100.00;101254.06;4934487;29;20481;-89
2022/06/02 03:57:00;;;;;;;15.00;6.85;;;;;;;7.87;100.00;101244.97;4926831;29;20130;-89
2022/06/02 03:59:44;;;;;;;11.95;6.82;;;;;;;7.93;100.00;101251.56;4921535;29;20086;-90
2022/06/02 04:02:13;;;;;;;10.90;6.88;;;;;;;8.00;100.00;101250.91;4935931;29;20039;-90
2022/06/02 04:05:02;;;;;;;10.77;6.18;;;;;;;8.05;100.00;101237.19;4934605;29;20078;-90
2022/06/02 04:07:52;;;;;;;11.25;7.53;;;;;;;8.12;100.00;101248.16;4934202;29;20031;-90
2022/06/02 04:10:33;;;;;;;9.18;6.40;;;;;;;8.22;100.00;101257.03;4920771;29;20059;-89
2022/06/02 04:13:37;;;;;;;9.32;5.95;;;;;;;8.29;100.00;101254.63;4942020;29;20480;-90
2022/06/02 04:16:42;;;;;;;13.98;6.72;;;;;;;8.31;100.00;101253.56;4943246;29;20047;-90
2022/06/02 04:22:42;;;;;;;10.50;5.80;;;;;;;8.45;100.00;101247.88;4927626;29;20035;-90
2022/06/02 04:25:56;;;;;;;10.60;6.18;;;;;;;8.47;100.00;101237.06;4925806;29;20499;-89
2022/06/02 04:28:41;;;;;;;10.97;5.67;;;;;;;8.50;100.00;101246.59;4916204;29;20050;-90
2022/06/02 04:31:23;;;;;;;8.75;6.03;;;;;;;8.56;100.00;101246.91;4939301;29;20099;-89
2022/06/02 04:33:55;;;;;;;9.00;5.68;;;;;;;8.57;100.00;101245.06;4943170;29;20027;-88
2022/06/02 04:36:44;;;;;;;8.10;5.05;;;;;;;8.59;100.00;101243.13;4934823;29;20066;-88
2022/06/02 04:39:19;;;;;;;6.57;4.50;;;;;;;8.63;100.00;101247.19;4946649;29;20527;-90
2022/06/02 04:41:59;;;;;;;8.25;5.18;;;;;;;8.69;100.00;101251.16;4933100;29;20501;-89
2022/06/02 04:44:47;;;;;;;13.52;4.93;;;;;;;8.69;100.00;101248.50;4926593;29;20074;-89
2022/06/02 04:47:35;;;;;;;8.93;5.93;;;;;;;8.68;100.00;101249.44;4924815;29;20550;-89
2022/06/02 04:50:30;;;;;;;6.90;4.82;;;;;;;8.80;100.00;101259.84;4906208;29;20032;-90
2022/06/02 04:53:09;;;;;;;;;;;;;;;8.82;100.00;101259.69;4933483;29;20043;-90
2022/06/02 04:56:08;;;;;;;8.93;5.07;;;;;;;8.80;100.00;101257.19;4933599;29;19942;-90
2022/06/02 04:58:56;;;;;;;8.27;4.65;;;;;;;8.80;100.00;101254.53;4918393;29;20040;-89
2022/06/02 05:01:54;;;;;;;7.38;5.40;;;;;;;8.83;100.00;101269.38;4899298;29;20046;-90
2022/06/02 05:04:33;;;;;;;10.98;5.57;;;;;;;8.81;100.00;101274.00;4935948;29;20043;-90
2022/06/02 05:07:47;;;;;;;10.80;5.40;;;;;;;8.90;100.00;101282.97;4932215;29;20086;-90
2022/06/02 05:10:27;;;;;;;7.88;5.32;;;;;;;8.97;100.00;101303.59;4935016;29;20054;-90
2022/06/02 05:13:06;;;;;;;10.90;5.70;;;;;;;8.97;100.00;101313.41;4925248;29;20390;-90
2022/06/02 05:15:56;;;;;;;10.77;6.72;;;;;;;8.94;100.00;101305.69;4925176;29;20118;-89
2022/06/02 05:18:43;;;;;;;6.68;5.03;;;;;;;9.07;100.00;101316.91;4924690;29;20040;-90
2022/06/02 05:21:41;;;;;;;12.27;6.45;;;;;;;9.15;100.00;101309.06;4921942;29;20035;-90
2022/06/02 05:24:39;;;;;;;8.48;5.72;;;;;;;9.23;100.00;101314.53;4939072;29;20043;-90
2022/06/02 05:27:50;;;;;;;9.52;5.88;;;;;;;9.14;100.00;101310.06;4926412;29;20031;-90
2022/06/02 05:30:49;;;;;;;13.18;6.57;;;;;;;9.16;100.00;101308.09;4924871;29;20083;-90
2022/06/02 05:33:36;;;;;;;7.32;5.75;;;;;;;9.17;100.00;101315.09;4921632;29;20119;-89
2022/06/02 05:36:27;;;;;;;10.52;5.50;;;;;;;9.21;100.00;101315.66;4921869;29;20043;-90
2022/06/02 05:39:07;;;;;;;10.93;5.00;;;;;;;9.26;100.00;101319.59;4923463;29;20043;-89
2022/06/02 05:41:45;;;;;;;10.40;5.93;;;;;;;9.35;100.00;101322.41;4922141;29;20087;-90
2022/06/02 05:44:28;;;;;;;9.10;5.63;;;;;;;9.37;100.00;101315.94;4919054;29;20127;-90
2022/06/02 05:47:10;;;;;;;12.85;6.10;;;;;;;9.51;100.00;101326.19;4928400;29;20036;-89
2022/06/02 05:49:42;;;;;;;10.43;6.22;;;;;;;9.62;100.00;101335.00;4929231;29;20150;-90
2022/06/02 05:52:26;;;;;;;8.48;5.90;;;;;;;9.77;100.00;101343.41;4924321;29;20035;-91
2022/06/02 05:55:05;;;;;;;14.20;6.63;;;;;;;9.76;100.00;101347.06;4933715;23;20071;-76
2022/06/02 05:57:37;;;;;;;10.73;6.30;;;;;;;9.76;100.00;101347.06;4927170;29;20071;-76
2022/06/02 06:00:30;;;;;;;9.85;6.13;;;;;;;9.97;100.00;101353.06;4935847;29;20039;-75
2022/06/02 06:03:13;;;;;;;8.60;4.55;;;;;;;10.17;100.00;101353.03;4927430;29;20845;-76
2022/06/02 06:05:43;;;;;;;8.70;5.05;;;;;;;10.23;100.00;101347.09;4927597;29;20047;-75
2022/06/02 06:08:35;;;;;;;10.02;4.82;;;;;;;10.64;100.00;101343.16;4957723;23;20076;-76
2022/06/02 06:11:16;;;;;;;7.35;4.72;;;;;;;10.66;100.00;101327.00;4922867;29;20041;-75
2022/06/02 06:13:47;;;;;;;7.43;4.70;;;;;;;10.88;100.00;101328.41;4916835;28;20103;-75
2022/06/02 06:16:32;;;;;;;6.10;4.45;;;;;;;10.97;100.00;101328.34;4908777;29;20039;-76
2022/06/02 06:19:19;;;;;;;11.27;5.60;;;;;;;10.66;100.00;101314.47;4906422;29;20072;-76
2022/06/02 06:22:02;;;;;;;7.45;4.63;;;;;;;10.42;100.00;101325.72;4893390;29;20562;-76
2022/06/02 06:25:05;;;;;;;8.77;4.78;;;;;;;10.31;100.00;101347.25;4894330;29;20048;-75
2022/06/02 06:27:39;;;;;;;8.65;4.72;;;;;;;10.33;100.00;101362.13;4909696;29;20075;-76
2022/06/02 06:30:21;;;;;;;8.48;4.60;;;;;;;10.43;100.00;101372.75;4890286;29;20092;-75
2022/06/02 06:33:17;;;;;;;8.48;4.47;;;;;;;10.33;100.00;101369.28;4875638;29;20044;-76
2022/06/02 06:36:03;;;;;;;8.48;4.25;;;;;;;10.55;100.00;101381.41;4892243;29;20036;-76
2022/06/02 06:38:45;;;;;;;9.75;4.38;;;;;;;10.51;100.00;101375.56;4899939;29;20043;-76
2022/06/02 06:41:58;;;;;;;9.93;4.00;;;;;;;10.66;100.00;101369.72;4897602;29;20060;-76
2022/06/02 06:44:35;;;;;;;9.38;4.07;;;;;;;10.91;100.00;101365.50;4857878;29;20484;-75
2022/06/02 06:47:08;;;;;;;6.95;4.57;;;;;;;11.18;100.00;101362.78;4900773;29;20037;-76
2022/06/02 06:50:05;;;;;;;8.18;4.28;;;;;;;11.10;100.00;101346.69;4895387;29;20040;-75
2022/06/02 06:53:02;;;;;;;9.30;4.68;;;;;;;11.20;100.00;101338.59;4895357;29;20095;-76
2022/06/02 06:55:54;;;;;;;8.68;4.60;;;;;;;11.06;100.00;101352.50;4905266;29;20063;-77
2022/06/02 06:58:41;;;;;;;4.85;3.80;;;;;;;11.36;100.00;101370.00;4894942;29;20036;-75
2022/06/02 07:01:58;;;;;;;6.10;4.70;;;;;;;11.57;100.00;101356.31;4894696;29;20040;-76
2022/06/02 07:04:32;;;;;;;9.38;3.95;;;;;;;12.56;100.00;101363.19;4839431;29;20131;-76
2022/06/02 07:07:15;;;;;;;6.45;4.15;;;;;;;12.10;100.00;101317.91;4892979;29;20060;-76
2022/06/02 07:10:00;;;;;;;6.32;3.80;;;;;;;12.58;100.00;101331.72;4889579;29;20037;-77
2022/06/02 07:12:53;;;;;;;5.30;3.10;;;;;;;12.75;100.00;101311.19;4901304;29;20430;-77
2022/06/02 07:15:33;;;;;;;5.63;3.85;;;;;;;12.34;100.00;101284.22;4909985;29;20051;-76
2022/06/02 07:18:25;;;;;;;5.78;3.58;;;;;;;12.35;100.00;101312.72;4917205;29;20040;-76
2022/06/02 07:21:20;;;;;;;8.38;3.97;;;;;;;12.54;100.00;101325.84;4898419;29;20058;-77
2022/06/02 07:24:09;;;;;;;6.45;2.63;;;;;;;12.26;100.00;101327.88;4891810;29;20573;-76
2022/06/02 07:26:43;;;;;;;8.35;4.03;;;;;;;12.13;100.00;101346.22;4892586;29;20055;-76
2022/06/02 07:29:23;;;;;;;5.07;3.67;;;;;;;12.19;100.00;101378.53;4877279;29;20490;-76
2022/06/02 07:32:08;;;;;;;6.65;3.75;;;;;;;11.96;100.00;101367.53;4917960;29;20044;-76
2022/06/02 07:34:36;;;;;;;6.70;4.13;;;;;;;12.01;100.00;101391.97;4897795;29;20043;-75
2022/06/02 07:37:29;;;;;;;12.75;4.07;;;;;;;11.97;100.00;101371.03;4892303;29;20059;-76
2022/06/02 07:40:25;;;;;;;6.45;4.00;;;;;;;12.01;100.00;101396.47;4901076;29;20059;-75
2022/06/02 07:43:05;;;;;;;8.45;3.35;;;;;;;12.07;100.00;101403.88;4897442;29;20046;-75
2022/06/02 07:45:32;;;;;;;9.38;3.53;;;;;;;12.11;100.00;101407.09;4895059;29;20047;-77
2022/06/02 07:48:24;;;;;;;27.08;4.40;;;;;;;12.40;100.00;101422.84;4906916;29;20027;-77
2022/06/02 07:50:56;;;;;;;7.65;4.13;;;;;;;12.34;100.00;101418.97;4898018;29;20040;-75
2022/06/02 07:53:36;;;;;;;4.38;3.05;;;;;;;12.30;100.00;101424.81;4897956;29;20393;-76
2022/06/02 07:56:21;;;;;;;7.05;3.08;;;;;;;12.14;100.00;101437.06;4901984;29;20063;-77
2022/06/02 07:59:05;;;;;;;8.68;3.20;;;;;;;12.03;100.00;101415.91;4901691;29;20078;-76
2022/06/02 08:02:01;;;;;;;7.20;2.78;;;;;;;12.14;100.00;101418.31;4891258;29;20044;-76
2022/06/02 08:04:45;;;;;;;5.47;2.88;;;;;;;12.16;100.00;101416.34;4866541;29;20045;-76
2022/06/02 08:07:39;;;;;;;8.13;3.40;;;;;;;12.21;100.00;101431.94;4892618;29;20684;-76
2022/06/02 08:10:30;;;;;;;10.07;2.67;;;;;;;12.28;100.00;101432.97;4894911;29;20245;-76
2022/06/02 08:13:15;;;;;;;9.20;3.58;;;;;;;12.30;100.00;101432.84;4899871;29;20051;-76
2022/06/02 08:16:14;;;;;;;5.70;3.25;;;;;;;12.15;100.00;101452.16;4888598;29;20552;-77
2022/06/02 08:19:12;;;;;;;10.68;3.78;;;;;;;11.81;100.00;101444.78;4890484;29;20043;-76
2022/06/02 08:21:45;;;;;;;11.13;3.65;;;;;;;11.65;100.00;101455.34;4902653;29;20561;-76
2022/06/02 08:24:44;;;;;;;12.93;3.80;;;;;;;11.78;100.00;101471.03;4895803;29;20140;-76
2022/06/02 08:27:41;;;;;;;6.45;3.22;;;;;;;12.10;100.00;101465.13;4897736;29;20482;-76
2022/06/02 08:30:14;;;;;;;13.27;4.10;;;;;;;12.29;100.00;101457.91;4897014;29;20326;-77
2022/06/02 08:33:04;;;;;;;6.93;3.17;;;;;;;12.42;100.00;101421.69;4918027;29;20489;-76
2022/06/02 08:35:47;;;;;;;6.72;2.80;;;;;;;12.62;100.00;101430.34;4897472;29;20048;-76
2022/06/02 08:38:47;;;;;;;13.18;3.80;;;;;;;12.85;100.00;101427.97;4897606;29;20029;-76
2022/06/02 08:41:39;;;;;;;8.27;3.97;;;;;;;12.73;100.00;101399.75;4903408;29;20036;-77
2022/06/02 08:44:18;;;;;;;8.50;3.38;;;;;;;12.42;100.00;101410.16;4904673;29;20063;-76
2022/06/02 08:47:35;;;;;;;9.07;3.88;;;;;;;12.36;100.00;101427.69;4902044;29;20116;-76
2022/06/02 08:50:14;;;;;;;7.00;4.50;;;;;;;12.41;100.00;101443.28;4910822;29;20064;-78
2022/06/02 08:53:17;;;;;;;10.82;4.03;;;;;;;12.41;100.00;101437.94;4893142;29;20051;-76
2022/06/02 08:56:25;;;;;;;9.60;3.58;;;;;;;12.36;100.00;101442.91;4897520;29;20044;-76
2022/06/02 08:58:50;;;;;;;8.73;3.35;;;;;;;12.29;100.00;101457.91;4894473;29;20062;-77
2022/06/02 09:01:31;;;;;;;10.87;4.33;;;;;;;12.13;100.00;101464.84;4896100;29;20137;-76
2022/06/02 09:04:27;;;;;;;15.98;4.00;;;;;;;12.07;100.00;101451.22;4899701;29;20048;-75
2022/06/02 09:07:17;;;;;;;12.50;3.30;;;;;;;11.91;100.00;101444.72;4896016;29;20495;-76
2022/06/02 09:10:09;;;;;;;15.07;4.20;;;;;;;11.91;100.00;101482.19;4887846;29;20217;-76
2022/06/02 09:13:12;;;;;;;12.32;4.55;;;;;;;11.98;100.00;101487.78;4900037;29;20071;-76
2022/06/02 09:15:56;;;;;;;15.00;3.80;;;;;;;11.96;100.00;101481.72;4896463;29;20065;-75
2022/06/02 09:18:54;;;;;;;8.77;3.65;;;;;;;12.18;100.00;101505.38;4896151;29;20037;-75
2022/06/02 09:21:19;;;;;;;11.75;5.03;;;;;;;12.25;100.00;101519.81;4878063;29;20071;-76
2022/06/02 09:24:19;;;;;;;12.67;4.40;;;;;;;12.40;100.00;101501.34;4893587;29;20457;-76
2022/06/02 09:27:22;;;;;;;14.15;5.35;;;;;;;12.28;100.00;101475.81;4891509;29;20092;-76
2022/06/02 09:30:07;;;;;;;13.77;4.00;;;;;;;12.19;100.00;101484.78;4895211;29;20036;-77
2022/06/02 09:32:45;;;;;;;15.20;4.07;;;;;;;12.29;100.00;101488.22;4893191;29;20128;-76
2022/06/02 09:35:20;;;;;;;13.90;3.70;;;;;;;12.09;100.00;101474.16;4881245;29;20083;-77
2022/06/02 09:38:30;;;;;;;10.68;3.70;;;;;;;12.01;100.00;101476.75;4887399;29;20497;-77
2022/06/02 09:41:10;;;;;;;15.85;4.30;;;;;;;12.22;100.00;101501.38;4875363;29;20055;-76
2022/06/02 09:43:49;;;;;;;10.93;3.85;;;;;;;12.05;100.00;101472.78;4896426;29;20048;-77
2022/06/02 09:46:39;;;;;;;8.00;3.55;;;;;;;12.29;100.00;101511.47;4895516;29;20036;-76
2022/06/02 09:49:35;;;;;;;11.00;3.53;;;;;;;12.22;100.00;101513.91;4874550;29;20379;-76
2022/06/02 09:52:22;;;;;;;11.13;3.60;;;;;;;11.99;100.00;101510.88;4890046;29;20261;-76
2022/06/02 09:55:09;;;;;;;12.77;3.90;;;;;;;11.87;100.00;101512.06;4900216;29;20686;-76
2022/06/02 09:58:21;;;;;;;11.25;4.30;;;;;;;11.90;100.00;101519.81;4893461;29;20045;-76
2022/06/02 10:00:55;;;;;;;10.90;3.83;;;;;;;11.93;100.00;101546.28;4898872;29;20091;-76
2022/06/02 10:03:50;;;;;;;10.20;4.03;;;;;;;12.10;100.00;101580.22;4896234;29;20088;-77
2022/06/02 10:07:12;;;;;;;18.75;4.50;;;;;;;12.02;100.00;101569.44;4894386;29;20588;-77
2022/06/02 10:10:16;;;;;;;10.88;3.45;;;;;;;12.10;100.00;101574.03;4906557;29;20051;-76
2022/06/02 10:13:15;;;;;;;9.13;3.45;;;;;;;12.15;100.00;101556.53;4905304;29;20052;-77
2022/06/02 10:15:44;;;;;;;13.15;3.30;;;;;;;12.13;100.00;101555.84;4899816;29;20119;-77
2022/06/02 10:18:18;;;;;;;8.10;3.35;;;;;;;12.15;100.00;101548.50;4900651;29;20028;-75
2022/06/02 10:21:00;;;;;;;14.32;3.55;;;;;;;12.30;100.00;101539.94;4895638;29;20047;-76
2022/06/02 10:24:11;;;;;;;10.02;3.15;;;;;;;12.32;100.00;101512.00;4895056;29;20037;-77
2022/06/02 10:27:10;;;;;;;7.65;3.05;;;;;;;12.44;100.00;101517.94;4841211;29;20052;-76
2022/06/02 10:29:56;;;;;;;15.63;3.40;;;;;;;12.67;100.00;101515.59;4899347;29;20072;-77
2022/06/02 10:32:33;;;;;;;;;;;;;;;12.91;100.00;101493.47;4896134;29;20133;-76
2022/06/02 10:35:20;;;;;;;14.18;3.55;;;;;;;13.49;100.00;101494.56;4898890;29;19915;-76
2022/06/02 10:38:05;;;;;;;11.75;3.47;;;;;;;13.82;100.00;101473.19;4898524;29;20080;-76
2022/06/02 10:41:01;;;;;;;11.13;3.38;;;;;;;14.03;100.00;101435.09;4896308;29;20044;-76
2022/06/02 10:43:45;;;;;;;14.00;4.32;;;;;;;14.60;100.00;101412.69;4896451;29;20036;-76
2022/06/02 10:46:11;;;;;;;7.60;2.90;;;;;;;14.72;100.00;101358.38;4894088;29;20061;-76
2022/06/02 10:49:03;;;;;;;7.35;3.28;;;;;;;15.38;100.00;101306.91;4911020;29;20035;-76
2022/06/02 10:51:37;;;;;;;7.00;3.22;;;;;;;15.53;100.00;101232.44;4898396;29;20048;-76
2022/06/02 10:54:41;;;;;;;10.07;3.35;;;;;;;15.50;100.00;101189.75;4892855;29;20123;-76
2022/06/02 10:57:39;;;;;;;7.20;2.85;;;;;;;15.25;100.00;101215.22;4894260;29;20560;-77
2022/06/02 11:00:10;;;;;;;16.90;3.10;;;;;;;14.86;100.00;101241.22;4880172;29;20036;-76
2022/06/02 11:02:44;;;;;;;7.95;2.85;;;;;;;14.05;100.00;101247.84;4876266;29;20042;-77
2022/06/02 11:05:45;;;;;;;7.68;2.97;;;;;;;13.54;100.00;101311.66;4896630;29;20092;-77
2022/06/02 11:08:49;;;;;;;6.55;2.65;;;;;;;13.75;100.00;101392.50;4877076;29;20089;-77
2022/06/02 11:11:52;;;;;;;9.55;3.90;;;;;;;13.54;100.00;101432.38;4895690;29;20061;-76
2022/06/02 11:14:58;;;;;;;8.50;2.80;;;;;;;13.60;100.00;101396.81;4878401;29;20041;-76
2022/06/02 11:17:45;;;;;;;8.52;2.83;;;;;;;13.94;100.00;101356.41;4897080;29;20051;-76
2022/06/02 11:20:22;;;;;;;7.60;3.42;;;;;;;14.21;100.00;101346.28;4876785;29;20046;-76
2022/06/02 11:23:32;;;;;;;8.23;2.53;;;;;;;14.17;100.00;101332.38;4893045;29;20099;-75
2022/06/02 11:26:09;;;;;;;8.43;2.92;;;;;;;14.02;100.00;101307.22;4890303;29;20036;-76
2022/06/02 11:28:51;;;;;;;10.30;2.70;;;;;;;14.03;100.00;101335.78;4899399;29;20048;-76
2022/06/02 11:31:35;;;;;;;7.15;2.75;;;;;;;14.06;100.00;101389.13;4883539;29;20044;-76
2022/06/02 11:34:38;;;;;;;8.70;3.88;;;;;;;13.99;100.00;101315.63;4877306;29;20041;-77
2022/06/02 11:37:39;;;;;;;9.15;3.13;;;;;;;14.06;100.00;101346.16;4886697;29;20112;-76
2022/06/02 11:40:22;;;;;;;11.82;3.20;;;;;;;14.57;100.00;101419.25;4893902;29;20518;-76
2022/06/02 11:42:57;;;;;;;7.90;2.47;;;;;;;14.27;100.00;101299.94;4908644;29;20611;-76
2022/06/02 11:45:44;;;;;;;6.60;2.97;;;;;;;14.18;100.00;101264.22;4895792;29;20036;-76
2022/06/02 11:48:49;;;;;;;11.93;3.53;;;;;;;14.27;100.00;101326.81;4906615;29;20143;-77
2022/06/02 11:51:46;;;;;;;6.63;2.30;;;;;;;14.25;100.00;101332.34;4893670;29;20052;-75
2022/06/02 11:54:54;;;;;;;4.72;2.63;;;;;;;14.12;100.00;101358.91;4916246;29;20055;-76
2022/06/02 11:57:47;;;;;;;6.95;2.58;;;;;;;15.17;100.00;101366.72;4903695;29;20092;-77
2022/06/02 12:00:47;;;;;;;5.70;2.30;;;;;;;15.40;100.00;101243.84;4893557;29;20197;-76
2022/06/02 12:03:55;;;;;;;12.45;3.50;;;;;;;15.11;100.00;101233.00;4902738;29;20447;-76
2022/06/02 12:06:48;;;;;;;8.07;2.90;;;;;;;15.11;100.00;101282.22;4893252;29;20044;-77
2022/06/02 12:09:56;;;;;;;12.95;3.38;;;;;;;15.09;100.00;101291.50;4905951;29;20478;-77
2022/06/02 12:12:41;;;;;;;7.57;2.80;;;;;;;14.85;100.00;101287.94;4893300;29;20517;-76
2022/06/02 12:15:24;;;;;;;14.35;3.55;;;;;;;15.02;100.00;101309.34;4901599;29;20036;-76
2022/06/02 12:17:59;;;;;;;11.65;2.92;;;;;;;16.03;100.00;101324.34;4893394;29;20627;-77
2022/06/02 12:20:58;;;;;;;8.70;2.83;;;;;;;17.70;100.00;101284.75;4898491;29;20146;-77
2022/06/02 12:23:33;;;;;;;8.52;3.00;;;;;;;18.10;100.00;101174.28;4878781;29;20123;-76
2022/06/02 12:26:04;;;;;;;8.00;2.83;;;;;;;18.64;90.75;100988.69;4905516;29;20479;-78
2022/06/02 12:28:51;;;;;;;13.85;3.70;;;;;;;18.90;90.63;101046.53;4875410;29;20043;-77
2022/06/02 12:31:52;;;;;;;6.50;2.03;;;;;;;18.28;87.46;100925.06;4897941;29;20036;-77
2022/06/02 12:34:40;;;;;;;9.85;2.50;;;;;;;18.46;93.28;101075.81;4902492;29;20036;-77
2022/06/02 12:37:26;;;;;;;10.68;3.30;;;;;;;18.03;93.25;101030.22;4891137;29;20897;-78
2022/06/02 12:40:03;;;;;;;9.82;3.40;;;;;;;17.93;88.93;100940.63;4890748;29;20087;-77
2022/06/02 12:43:18;;;;;;;8.00;2.63;;;;;;;17.48;88.40;100902.53;4900177;29;20059;-77
2022/06/02 12:45:55;;;;;;;;;;;;;;;17.40;92.93;100981.81;4878055;29;20052;-77
2022/06/02 12:48:32;;;;;;;7.50;3.40;;;;;;;16.71;98.14;101003.41;4878254;29;19923;-78
2022/06/02 12:51:17;;;;;;;6.50;2.00;;;;;;;17.18;94.73;101067.44;4890964;29;20052;-77
2022/06/02 12:54:03;;;;;;;4.07;2.13;;;;;;;17.46;94.68;101096.25;4899117;29;20078;-77